Time;durP1;ratioP1;P1;durP2;ratioP2;P2;SDS_P1;SDS_P2;PMS_P1;PMS_P2;Temp;Humidity;BMP_temperature;BMP_pressure;BME280_temperature;BME280_humidity;BME280_pressure;Samples;Min_cycle;Max_cycle;Signal;HPM_P1;HPM_P2
2024/01/21 00:01:34;;;;;;;6.97;5.15;;;-0.10;92.20;;;;;;5074454;28;20201;-64
2024/01/21 00:04:00;;;;;;;12.02;7.13;;;-0.10;91.90;;;;;;5074498;28;20200;-64
2024/01/21 00:06:27;;;;;;;10.15;6.28;;;-0.20;91.70;;;;;;5073655;28;20255;-64
2024/01/21 00:08:54;;;;;;;8.18;5.57;;;-0.20;91.90;;;;;;5073513;28;20224;-64
2024/01/21 00:11:20;;;;;;;10.68;6.10;;;-0.20;91.70;;;;;;5073742;28;20197;-63
2024/01/21 00:13:47;;;;;;;12.00;6.35;;;-0.20;91.50;;;;;;5074545;28;20538;-63
2024/01/21 00:16:15;;;;;;;8.90;5.43;;;-0.20;91.50;;;;;;5075837;28;20200;-63
2024/01/21 00:18:42;;;;;;;12.80;6.38;;;-0.20;91.40;;;;;;5074562;28;20229;-64
2024/01/21 00:21:09;;;;;;;7.07;4.95;;;-0.10;91.30;;;;;;5074731;28;20785;-63
2024/01/21 00:23:36;;;;;;;8.32;6.30;;;-0.10;91.20;;;;;;5074728;28;20204;-64
2024/01/21 00:26:03;;;;;;;13.38;6.20;;;0.00;91.10;;;;;;5073727;28;20211;-63
2024/01/21 00:28:29;;;;;;;10.30;6.32;;;0.00;91.00;;;;;;5075659;28;20224;-64
2024/01/21 00:30:56;;;;;;;9.10;5.57;;;0.10;90.80;;;;;;5078590;28;20196;-62
2024/01/21 00:33:24;;;;;;;7.82;5.80;;;0.10;90.50;;;;;;5078036;28;20212;-63
2024/01/21 00:35:51;;;;;;;8.57;5.20;;;0.10;90.10;;;;;;5078904;28;20208;-63
2024/01/21 00:38:18;;;;;;;8.15;5.20;;;0.10;89.40;;;;;;5079109;28;20221;-63
2024/01/21 00:40:44;;;;;;;7.85;4.93;;;0.10;89.00;;;;;;5082780;28;20201;-63
2024/01/21 00:43:11;;;;;;;10.05;5.70;;;0.10;88.50;;;;;;5083611;28;20592;-63
2024/01/21 00:45:38;;;;;;;9.18;5.80;;;0.10;88.20;;;;;;5081973;28;20205;-63
2024/01/21 00:48:05;;;;;;;9.63;5.68;;;0.00;87.90;;;;;;5081467;28;20224;-63
2024/01/21 00:50:33;;;;;;;8.10;5.55;;;0.00;88.10;;;;;;5078751;28;20566;-63
2024/01/21 00:53:00;;;;;;;11.38;5.80;;;0.00;88.00;;;;;;5078589;28;20219;-63
2024/01/21 00:55:28;;;;;;;5.88;4.80;;;-0.10;88.10;;;;;;5078822;28;20212;-63
2024/01/21 00:57:54;;;;;;;9.10;5.32;;;-0.10;87.20;;;;;;5077404;28;20316;-64
2024/01/21 01:00:25;;;;;;;11.75;5.93;;;-0.10;86.90;;;;;;5078021;28;20205;-63
2024/01/21 01:02:52;;;;;;;9.75;5.20;;;-0.20;86.80;;;;;;5078220;28;20583;-63
2024/01/21 01:05:19;;;;;;;9.15;5.75;;;-0.20;86.90;;;;;;5078163;28;20596;-63
2024/01/21 01:07:47;;;;;;;7.10;4.70;;;-0.20;86.80;;;;;;5078052;28;20217;-63
2024/01/21 01:10:14;;;;;;;12.30;5.53;;;-0.20;86.20;;;;;;5078698;28;20201;-62
2024/01/21 01:12:41;;;;;;;10.48;5.70;;;-0.20;85.60;;;;;;5078503;28;20201;-63
2024/01/21 01:15:11;;;;;;;9.23;5.10;;;-0.20;85.50;;;;;;5078650;28;20205;-63
2024/01/21 01:17:37;;;;;;;9.25;5.75;;;-0.20;85.40;;;;;;5078035;28;20235;-63
2024/01/21 01:20:05;;;;;;;12.82;5.57;;;-0.20;85.50;;;;;;5078117;28;20228;-62
2024/01/21 01:22:32;;;;;;;8.13;4.97;;;-0.20;85.20;;;;;;5077863;28;20701;-63
2024/01/21 01:25:00;;;;;;;7.00;4.97;;;-0.30;84.50;;;;;;5078277;28;20201;-64
2024/01/21 01:27:27;;;;;;;9.75;5.88;;;-0.30;84.80;;;;;;5077886;28;20699;-63
2024/01/21 01:29:54;;;;;;;8.35;5.53;;;-0.30;85.00;;;;;;5078137;28;20201;-64
2024/01/21 01:32:20;;;;;;;7.57;5.20;;;-0.30;85.10;;;;;;5078074;28;20209;-64
2024/01/21 01:34:49;;;;;;;8.00;5.47;;;-0.40;85.10;;;;;;5077862;28;20675;-63
2024/01/21 01:37:16;;;;;;;10.85;5.45;;;-0.40;85.20;;;;;;5077442;28;20225;-63
2024/01/21 01:39:42;;;;;;;8.70;5.68;;;-0.40;84.90;;;;;;5076825;28;20205;-64
2024/01/21 01:42:11;;;;;;;6.47;4.82;;;-0.40;85.30;;;;;;5078226;28;20201;-64
2024/01/21 01:44:40;;;;;;;6.85;4.70;;;-0.40;85.10;;;;;;5077187;28;20197;-64
2024/01/21 01:47:07;;;;;;;7.90;5.03;;;-0.40;85.00;;;;;;5076766;28;20224;-63
2024/01/21 01:49:34;;;;;;;6.88;4.85;;;-0.40;85.40;;;;;;5076778;28;20220;-61
2024/01/21 01:52:02;;;;;;;6.60;4.82;;;-0.40;85.30;;;;;;5076661;28;20204;-63
2024/01/21 01:54:30;;;;;;;6.95;4.22;;;-0.40;85.30;;;;;;5077578;28;20311;-63
2024/01/21 01:56:57;;;;;;;7.13;5.30;;;-0.30;85.00;;;;;;5077401;28;20225;-64
2024/01/21 01:59:27;;;;;;;8.05;4.95;;;-0.30;84.50;;;;;;5076628;28;20232;-63
2024/01/21 02:01:54;;;;;;;9.23;5.60;;;-0.30;84.20;;;;;;5076796;28;20581;-64
2024/01/21 02:04:21;;;;;;;6.95;4.80;;;-0.30;84.00;;;;;;5076250;28;20204;-63
2024/01/21 02:06:48;;;;;;;7.45;4.72;;;-0.30;83.70;;;;;;5075976;28;20216;-63
2024/01/21 02:09:15;;;;;;;7.65;5.28;;;-0.30;83.40;;;;;;5075610;28;20667;-64
2024/01/21 02:11:43;;;;;;;7.95;4.47;;;-0.40;83.60;;;;;;5076164;28;20216;-62
2024/01/21 02:14:10;;;;;;;5.85;4.60;;;-0.40;83.60;;;;;;5075681;28;20211;-63
2024/01/21 02:16:39;;;;;;;6.88;4.43;;;-0.40;83.40;;;;;;5075685;28;20200;-65
2024/01/21 02:19:19;;;;;;;6.57;4.28;;;-0.40;83.50;;;;;;5076004;28;20304;-64
2024/01/21 02:21:46;;;;;;;7.13;4.60;;;-0.40;83.70;;;;;;5076047;28;20192;-62
2024/01/21 02:24:14;;;;;;;7.22;4.63;;;-0.40;83.40;;;;;;5076616;28;20200;-63
2024/01/21 02:26:41;;;;;;;7.78;4.00;;;-0.40;83.30;;;;;;5076320;28;20201;-65
2024/01/21 02:29:07;;;;;;;7.97;4.45;;;-0.40;83.10;;;;;;5078170;28;20197;-63
2024/01/21 02:31:34;;;;;;;6.25;3.78;;;-0.40;83.00;;;;;;5082384;28;20197;-63
2024/01/21 02:34:01;;;;;;;5.60;3.38;;;-0.40;83.10;;;;;;5083515;28;20218;-63
2024/01/21 02:36:27;;;;;;;4.88;4.38;;;-0.40;83.10;;;;;;5079031;28;20201;-64
2024/01/21 02:38:54;;;;;;;5.25;3.40;;;-0.40;82.90;;;;;;5076110;28;20229;-63
2024/01/21 02:41:22;;;;;;;6.60;4.28;;;-0.40;82.80;;;;;;5076525;28;20220;-63
2024/01/21 02:43:49;;;;;;;6.93;3.95;;;-0.40;82.30;;;;;;5076295;28;20204;-63
2024/01/21 02:46:18;;;;;;;8.07;4.15;;;-0.30;82.80;;;;;;5076135;28;20287;-64
2024/01/21 02:48:44;;;;;;;9.05;4.53;;;-0.30;81.80;;;;;;5076099;28;20213;-63
2024/01/21 02:51:13;;;;;;;5.20;3.70;;;-0.30;81.30;;;;;;5075149;28;20201;-64
2024/01/21 02:53:40;;;;;;;4.05;3.65;;;-0.20;81.10;;;;;;5075386;28;20201;-63
2024/01/21 02:56:07;;;;;;;7.82;4.05;;;-0.20;80.80;;;;;;5075967;28;20197;-64
2024/01/21 02:58:35;;;;;;;4.20;3.80;;;-0.20;80.40;;;;;;5075510;28;20232;-64
2024/01/21 03:01:02;;;;;;;4.93;4.05;;;-0.10;80.10;;;;;;5075762;28;20197;-62
2024/01/21 03:03:29;;;;;;;5.47;4.10;;;0.00;79.80;;;;;;5076030;28;20762;-62
2024/01/21 03:05:56;;;;;;;4.45;3.35;;;0.00;79.10;;;;;;5080521;28;20212;-64
2024/01/21 03:08:22;;;;;;;4.88;3.30;;;0.00;78.70;;;;;;5083792;28;20227;-63
2024/01/21 03:10:50;;;;;;;8.50;4.18;;;0.00;78.30;;;;;;5081755;28;20208;-63
2024/01/21 03:13:17;;;;;;;8.32;3.28;;;0.10;78.00;;;;;;5079238;28;20221;-64
2024/01/21 03:15:45;;;;;;;5.25;4.07;;;0.10;77.70;;;;;;5077877;28;20572;-63
2024/01/21 03:18:12;;;;;;;4.85;3.80;;;0.10;77.50;;;;;;5076008;28;20225;-63
2024/01/21 03:20:38;;;;;;;4.72;3.75;;;0.10;77.50;;;;;;5075817;28;20211;-64
2024/01/21 03:23:05;;;;;;;6.30;4.30;;;0.10;77.40;;;;;;5077238;28;20204;-63
2024/01/21 03:25:32;;;;;;;6.05;4.13;;;0.10;77.10;;;;;;5074918;28;20197;-64
2024/01/21 03:27:59;;;;;;;4.82;4.20;;;0.10;77.10;;;;;;5075063;28;20225;-63
2024/01/21 03:30:26;;;;;;;5.30;4.38;;;0.00;76.50;;;;;;5074622;28;20201;-64
2024/01/21 03:32:54;;;;;;;5.03;3.58;;;0.00;76.40;;;;;;5074598;28;20212;-64
2024/01/21 03:35:21;;;;;;;5.97;3.50;;;0.00;75.80;;;;;;5075271;28;20209;-63
2024/01/21 03:37:48;;;;;;;8.32;3.78;;;0.00;75.40;;;;;;5074659;28;20221;-63
2024/01/21 03:40:15;;;;;;;4.60;3.30;;;0.00;75.10;;;;;;5074908;28;20221;-63
2024/01/21 03:42:43;;;;;;;3.50;3.20;;;0.10;74.80;;;;;;5074226;28;20683;-64
2024/01/21 03:45:10;;;;;;;5.45;4.40;;;0.10;74.50;;;;;;5074889;28;20212;-64
2024/01/21 03:47:37;;;;;;;4.70;3.15;;;0.10;73.50;;;;;;5073940;28;20225;-64
2024/01/21 03:50:06;;;;;;;4.88;3.97;;;0.10;73.00;;;;;;5074787;28;20203;-64
2024/01/21 03:52:32;;;;;;;4.53;3.45;;;0.10;72.50;;;;;;5074661;28;20205;-64
2024/01/21 03:55:01;;;;;;;7.38;3.75;;;0.10;72.00;;;;;;5074221;28;20205;-63
2024/01/21 03:57:28;;;;;;;4.30;2.95;;;0.10;71.70;;;;;;5074246;28;20692;-62
2024/01/21 03:59:54;;;;;;;7.47;3.88;;;0.10;71.10;;;;;;5074334;28;20223;-63
2024/01/21 04:02:23;;;;;;;3.70;3.00;;;0.10;70.60;;;;;;5074130;28;20212;-63
2024/01/21 04:04:52;;;;;;;5.85;3.40;;;0.20;70.40;;;;;;5076734;28;20200;-63
2024/01/21 04:07:20;;;;;;;9.57;3.35;;;0.20;69.90;;;;;;5073988;28;20220;-62
2024/01/21 04:13:01;;;;;;;7.10;4.63;;;0.20;68.50;;;;;;5111901;27;20544;-63
2024/01/21 04:15:28;;;;;;;4.63;3.58;;;0.30;68.70;;;;;;5112251;28;20195;-64
2024/01/21 04:17:55;;;;;;;5.85;4.30;;;0.30;68.00;;;;;;5112153;28;20219;-63
2024/01/21 04:20:21;;;;;;;5.70;4.63;;;0.30;67.50;;;;;;5111694;28;20568;-64
2024/01/21 04:22:48;;;;;;;7.00;4.60;;;0.40;67.50;;;;;;5111540;28;20206;-63
2024/01/21 04:25:15;;;;;;;4.55;4.15;;;0.40;67.20;;;;;;5111685;28;20215;-63
2024/01/21 04:27:42;;;;;;;5.40;3.78;;;0.40;67.00;;;;;;5111609;28;20224;-63
2024/01/21 04:30:11;;;;;;;5.93;4.45;;;0.40;66.70;;;;;;5111506;28;20688;-64
2024/01/21 04:32:37;;;;;;;4.43;4.03;;;0.40;66.60;;;;;;5111231;28;20695;-64
2024/01/21 04:35:05;;;;;;;5.68;4.32;;;0.40;66.30;;;;;;5111897;28;20210;-64
2024/01/21 04:37:32;;;;;;;6.32;4.03;;;0.30;66.20;;;;;;5111462;28;20220;-64
2024/01/21 04:39:59;;;;;;;5.80;4.18;;;0.30;66.20;;;;;;5111367;28;20200;-63
2024/01/21 04:42:26;;;;;;;7.28;3.97;;;0.20;66.00;;;;;;5111211;28;20643;-63
2024/01/21 04:44:52;;;;;;;8.75;4.55;;;0.20;66.00;;;;;;5111938;28;20280;-64
2024/01/21 04:47:20;;;;;;;5.97;4.72;;;0.20;66.10;;;;;;5115013;28;20731;-63
2024/01/21 04:49:47;;;;;;;6.97;4.20;;;0.10;66.00;;;;;;5127139;28;20219;-64
2024/01/21 04:52:14;;;;;;;5.20;4.57;;;0.10;66.30;;;;;;5123539;28;20220;-64
2024/01/21 04:54:41;;;;;;;5.60;3.90;;;0.10;66.30;;;;;;5113942;28;20681;-63
2024/01/21 04:57:08;;;;;;;5.63;4.05;;;0.10;66.10;;;;;;5111751;28;20651;-64
2024/01/21 04:59:35;;;;;;;5.40;4.28;;;0.10;65.80;;;;;;5111459;28;20206;-60
2024/01/21 05:02:01;;;;;;;5.95;4.28;;;0.10;65.70;;;;;;5111556;28;20575;-64
2024/01/21 05:04:30;;;;;;;4.38;3.42;;;0.10;65.50;;;;;;5112075;28;20282;-63
2024/01/21 05:06:56;;;;;;;6.13;3.80;;;0.10;65.10;;;;;;5111515;28;20214;-64
2024/01/21 05:09:23;;;;;;;5.15;3.85;;;0.10;65.00;;;;;;5111308;28;20582;-63
2024/01/21 05:11:50;;;;;;;6.55;3.83;;;0.10;64.90;;;;;;5110990;28;20235;-63
2024/01/21 05:14:16;;;;;;;6.35;3.70;;;0.10;64.90;;;;;;5111931;28;20204;-63
2024/01/21 05:16:43;;;;;;;4.40;3.28;;;0.10;64.90;;;;;;5111383;28;20240;-63
2024/01/21 05:19:10;;;;;;;7.55;3.88;;;0.10;64.80;;;;;;5111107;28;20204;-62
2024/01/21 05:21:38;;;;;;;6.40;4.35;;;0.10;64.60;;;;;;5110668;28;20206;-63
2024/01/21 05:24:05;;;;;;;9.18;4.22;;;0.10;64.80;;;;;;5098572;28;20200;-65
2024/01/21 05:26:32;;;;;;;6.57;4.50;;;0.10;64.80;;;;;;5096712;28;20204;-63
2024/01/21 05:29:00;;;;;;;6.00;3.95;;;0.10;64.80;;;;;;5097135;28;20220;-63
2024/01/21 05:31:28;;;;;;;4.75;3.78;;;0.10;64.90;;;;;;5097181;28;20216;-63
2024/01/21 05:33:55;;;;;;;6.18;3.75;;;0.10;64.70;;;;;;5097931;28;20204;-63
2024/01/21 05:36:22;;;;;;;5.93;3.95;;;0.20;64.40;;;;;;5100830;28;20658;-62
2024/01/21 05:38:50;;;;;;;6.32;4.05;;;0.20;64.30;;;;;;5099927;28;20231;-62
2024/01/21 05:41:17;;;;;;;5.13;3.95;;;0.20;63.80;;;;;;5101918;28;20200;-63
2024/01/21 05:43:44;;;;;;;8.63;4.00;;;0.30;63.80;;;;;;5097717;28;20674;-63
2024/01/21 05:46:11;;;;;;;6.82;4.65;;;0.30;63.60;;;;;;5097059;28;20747;-63
2024/01/21 05:48:38;;;;;;;6.05;4.00;;;0.40;63.40;;;;;;5097519;28;20228;-63
2024/01/21 05:51:05;;;;;;;4.85;3.63;;;0.40;63.20;;;;;;5097089;28;20210;-63
2024/01/21 05:53:32;;;;;;;4.75;4.05;;;0.40;63.10;;;;;;5096733;28;20692;-63
2024/01/21 05:56:00;;;;;;;7.35;4.35;;;0.40;62.90;;;;;;5096835;28;20211;-63
2024/01/21 05:58:27;;;;;;;5.22;4.20;;;0.50;62.70;;;;;;5097014;28;20221;-63
2024/01/21 06:00:53;;;;;;;5.85;4.03;;;0.50;62.40;;;;;;5096061;28;20204;-63
2024/01/21 06:03:20;;;;;;;5.72;4.35;;;0.50;61.70;;;;;;5096155;28;20197;-64
2024/01/21 06:05:47;;;;;;;5.43;3.65;;;0.60;61.70;;;;;;5096362;28;20290;-62
2024/01/21 06:08:13;;;;;;;5.82;4.40;;;0.60;60.80;;;;;;5095534;28;20220;-63
2024/01/21 06:10:40;;;;;;;5.53;4.07;;;0.60;60.40;;;;;;5095705;28;20201;-64
2024/01/21 06:13:08;;;;;;;6.95;4.63;;;0.70;60.00;;;;;;5095194;28;20200;-64
2024/01/21 06:15:35;;;;;;;4.90;4.13;;;0.70;59.40;;;;;;5096795;28;20200;-62
2024/01/21 06:18:02;;;;;;;8.63;4.55;;;0.80;59.10;;;;;;5095090;28;20733;-63
2024/01/21 06:20:29;;;;;;;5.18;3.58;;;0.80;58.70;;;;;;5095267;28;20615;-63
2024/01/21 06:22:55;;;;;;;5.10;4.10;;;0.90;58.40;;;;;;5095844;28;20191;-62
2024/01/21 06:25:22;;;;;;;4.10;3.58;;;0.90;58.20;;;;;;5095253;28;20227;-61
2024/01/21 06:27:49;;;;;;;4.93;3.70;;;0.90;57.60;;;;;;5094773;28;20391;-62
2024/01/21 06:30:21;;;;;;;7.20;4.40;;;1.00;57.20;;;;;;5094842;28;20205;-63
2024/01/21 06:32:47;;;;;;;5.68;4.25;;;1.00;56.80;;;;;;5095480;28;20594;-64
2024/01/21 06:35:14;;;;;;;7.70;4.05;;;1.10;56.40;;;;;;5094752;28;20211;-62
2024/01/21 06:37:41;;;;;;;5.00;3.78;;;1.00;56.30;;;;;;5095051;28;20230;-64
2024/01/21 06:40:09;;;;;;;7.05;4.47;;;1.10;56.20;;;;;;5095107;28;20200;-64
2024/01/21 06:42:37;;;;;;;6.10;3.35;;;1.10;56.10;;;;;;5094710;28;20667;-63
2024/01/21 06:45:04;;;;;;;4.30;3.80;;;1.10;56.40;;;;;;5095095;28;20569;-63
2024/01/21 06:47:32;;;;;;;4.18;3.25;;;1.10;55.70;;;;;;5095225;28;20230;-63
2024/01/21 06:49:59;;;;;;;6.60;4.05;;;1.10;55.60;;;;;;5094894;28;20207;-63
2024/01/21 06:52:25;;;;;;;5.80;4.00;;;1.20;55.50;;;;;;5094712;28;20212;-64
2024/01/21 06:54:52;;;;;;;5.63;4.10;;;1.20;55.40;;;;;;5095111;28;20207;-64
2024/01/21 06:57:19;;;;;;;7.40;4.32;;;1.20;55.30;;;;;;5094771;28;20231;-64
2024/01/21 06:59:46;;;;;;;4.90;3.90;;;1.20;55.10;;;;;;5095313;28;20222;-64
2024/01/21 07:02:13;;;;;;;6.10;3.88;;;1.20;55.20;;;;;;5094777;28;20200;-62
2024/01/21 07:04:41;;;;;;;5.65;4.82;;;1.20;54.90;;;;;;5094597;28;20286;-62
2024/01/21 07:07:08;;;;;;;8.48;3.80;;;1.20;54.80;;;;;;5095172;28;20223;-63
2024/01/21 07:09:35;;;;;;;6.55;4.13;;;1.30;55.00;;;;;;5094616;28;20211;-62
2024/01/21 07:12:02;;;;;;;5.22;3.88;;;1.30;54.90;;;;;;5094361;28;20247;-63
2024/01/21 07:14:33;;;;;;;4.63;3.25;;;1.30;54.60;;;;;;5094811;28;20197;-64
2024/01/21 07:17:00;;;;;;;6.57;4.50;;;1.30;54.60;;;;;;5094217;28;20238;-63
2024/01/21 07:19:27;;;;;;;6.68;4.03;;;1.30;54.60;;;;;;5094090;28;20206;-63
2024/01/21 07:21:55;;;;;;;5.22;3.88;;;1.30;54.60;;;;;;5093910;28;20204;-63
2024/01/21 07:24:21;;;;;;;5.07;4.00;;;1.30;54.50;;;;;;5094265;28;20204;-63
2024/01/21 07:26:48;;;;;;;5.13;3.75;;;1.30;54.50;;;;;;5094031;28;20210;-63
2024/01/21 07:29:15;;;;;;;9.10;3.88;;;1.30;54.40;;;;;;5094264;28;20593;-63
2024/01/21 07:31:42;;;;;;;4.68;3.88;;;1.30;54.50;;;;;;5094460;28;20197;-63
2024/01/21 07:34:09;;;;;;;6.47;4.55;;;1.30;54.60;;;;;;5094245;28;20207;-63
2024/01/21 07:36:36;;;;;;;6.07;4.38;;;1.40;54.60;;;;;;5094900;28;20253;-62
2024/01/21 07:39:06;;;;;;;4.38;3.97;;;1.40;54.60;;;;;;5094920;28;20589;-63
2024/01/21 07:41:33;;;;;;;8.25;4.15;;;1.40;54.50;;;;;;5094554;28;20197;-62
2024/01/21 07:44:00;;;;;;;5.10;4.38;;;1.40;54.60;;;;;;5094666;28;20200;-64
2024/01/21 07:46:26;;;;;;;6.90;4.65;;;1.50;54.60;;;;;;5095145;28;20211;-63
2024/01/21 07:48:53;;;;;;;9.00;4.15;;;1.50;54.40;;;;;;5093912;28;20220;-64
2024/01/21 07:51:20;;;;;;;5.78;4.82;;;1.50;54.40;;;;;;5095216;28;20203;-63
2024/01/21 07:53:47;;;;;;;4.75;3.80;;;1.50;54.30;;;;;;5093980;28;20228;-63
2024/01/21 07:56:15;;;;;;;5.70;4.07;;;1.50;54.20;;;;;;5093897;28;20208;-63
2024/01/21 07:58:42;;;;;;;5.00;4.10;;;1.50;54.00;;;;;;5093707;28;20224;-62
2024/01/21 08:01:11;;;;;;;5.85;4.00;;;1.60;54.20;;;;;;5094464;28;20234;-63
2024/01/21 08:03:38;;;;;;;6.15;4.43;;;1.60;54.10;;;;;;5093745;28;20328;-62
2024/01/21 08:06:07;;;;;;;5.60;4.38;;;1.60;54.10;;;;;;5094394;28;20200;-63
2024/01/21 08:08:34;;;;;;;6.68;4.30;;;1.60;54.10;;;;;;5093540;28;20220;-61
2024/01/21 08:11:01;;;;;;;8.30;4.07;;;1.60;53.80;;;;;;5093344;28;20632;-63
2024/01/21 08:13:29;;;;;;;7.05;4.57;;;1.60;53.50;;;;;;5093590;28;20227;-63
2024/01/21 08:15:56;;;;;;;6.90;4.30;;;1.60;53.60;;;;;;5094087;28;20299;-64
2024/01/21 08:18:22;;;;;;;5.65;4.93;;;1.60;53.60;;;;;;5094065;28;20278;-62
2024/01/21 08:20:49;;;;;;;7.43;4.45;;;1.60;53.50;;;;;;5093345;28;20701;-63
2024/01/21 08:23:16;;;;;;;9.30;5.97;;;1.60;53.50;;;;;;5093313;28;20200;-63
2024/01/21 08:25:43;;;;;;;5.22;4.10;;;1.60;53.60;;;;;;5094386;28;20200;-63
2024/01/21 08:28:09;;;;;;;4.97;4.38;;;1.60;53.60;;;;;;5094824;28;20273;-63
2024/01/21 08:30:37;;;;;;;9.05;4.63;;;1.70;53.60;;;;;;5094781;28;20200;-63
2024/01/21 08:33:05;;;;;;;6.63;4.75;;;1.70;53.30;;;;;;5094811;28;20224;-62
2024/01/21 08:35:31;;;;;;;8.05;4.55;;;1.70;53.30;;;;;;5094968;28;20206;-63
2024/01/21 08:38:00;;;;;;;5.07;4.00;;;1.80;53.40;;;;;;5094173;28;20575;-64
2024/01/21 08:40:26;;;;;;;7.03;4.43;;;1.80;53.20;;;;;;5094071;28;20226;-63
2024/01/21 08:42:53;;;;;;;6.85;4.25;;;1.90;53.20;;;;;;5094014;28;20197;-63
2024/01/21 08:45:20;;;;;;;7.15;4.40;;;1.90;53.10;;;;;;5093986;28;20204;-63
2024/01/21 08:47:48;;;;;;;7.50;4.38;;;1.90;53.00;;;;;;5094296;28;20312;-63
2024/01/21 08:50:14;;;;;;;12.20;5.38;;;1.90;53.00;;;;;;5094335;28;20204;-63
2024/01/21 08:52:41;;;;;;;5.85;4.00;;;1.90;53.10;;;;;;5093873;28;20221;-63
2024/01/21 08:55:08;;;;;;;5.15;4.03;;;2.00;53.30;;;;;;5093699;28;20295;-62
2024/01/21 08:57:35;;;;;;;5.93;3.65;;;2.00;53.40;;;;;;5093891;28;20228;-64
2024/01/21 09:00:04;;;;;;;4.60;4.00;;;2.10;53.50;;;;;;5098417;28;20212;-62
2024/01/21 09:02:31;;;;;;;6.22;3.90;;;2.20;53.40;;;;;;5100481;28;20204;-62
2024/01/21 09:04:59;;;;;;;5.93;3.30;;;2.20;53.30;;;;;;5109361;28;20207;-63
2024/01/21 09:07:26;;;;;;;4.15;3.10;;;2.30;53.00;;;;;;5109752;28;20569;-63
2024/01/21 09:09:53;;;;;;;6.85;4.28;;;2.30;52.60;;;;;;5110288;28;20205;-62
2024/01/21 09:12:19;;;;;;;6.28;3.47;;;2.40;52.50;;;;;;5109411;28;20208;-63
2024/01/21 09:14:46;;;;;;;6.70;3.30;;;2.40;52.10;;;;;;5110110;28;20692;-63
2024/01/21 09:17:13;;;;;;;4.18;3.63;;;2.50;52.10;;;;;;5106583;28;20228;-63
2024/01/21 09:19:39;;;;;;;6.20;3.45;;;2.50;52.00;;;;;;5099827;28;20204;-62
2024/01/21 09:22:07;;;;;;;5.88;3.88;;;2.50;51.80;;;;;;5098612;28;20665;-62
2024/01/21 09:24:34;;;;;;;7.45;4.10;;;2.50;51.80;;;;;;5098799;28;20199;-62
2024/01/21 09:27:01;;;;;;;5.30;3.53;;;2.60;52.00;;;;;;5098006;28;20216;-62
2024/01/21 09:29:28;;;;;;;6.03;4.35;;;2.60;51.90;;;;;;5098399;28;20208;-62
2024/01/21 09:31:56;;;;;;;3.83;2.50;;;2.60;51.80;;;;;;5097674;28;20231;-63
2024/01/21 09:34:22;;;;;;;5.55;3.08;;;2.60;51.60;;;;;;5098328;28;20289;-64
2024/01/21 09:36:50;;;;;;;3.75;3.10;;;2.60;51.40;;;;;;5098544;28;20208;-61
2024/01/21 09:39:19;;;;;;;4.40;3.53;;;2.70;51.50;;;;;;5097398;28;20315;-62
2024/01/21 09:41:49;;;;;;;7.63;3.80;;;2.70;51.50;;;;;;5097797;28;20212;-63
2024/01/21 09:44:18;;;;;;;4.20;2.70;;;2.80;51.40;;;;;;5098202;28;20196;-61
2024/01/21 09:46:50;;;;;;;4.47;3.03;;;2.80;51.20;;;;;;5097748;28;20263;-62
2024/01/21 09:49:20;;;;;;;4.32;3.25;;;2.80;51.00;;;;;;5097697;28;20189;-63
2024/01/21 09:51:47;;;;;;;10.63;3.20;;;2.90;50.80;;;;;;5097871;28;20200;-62
2024/01/21 09:54:14;;;;;;;5.28;3.78;;;2.90;50.80;;;;;;5097627;28;20217;-64
2024/01/21 09:56:43;;;;;;;5.35;3.75;;;3.00;50.60;;;;;;5097341;28;20211;-63
2024/01/21 09:59:10;;;;;;;5.00;3.38;;;3.00;50.60;;;;;;5097534;28;20200;-63
2024/01/21 10:01:38;;;;;;;3.33;2.78;;;3.10;50.70;;;;;;5096639;28;20212;-63
2024/01/21 10:04:05;;;;;;;4.20;3.70;;;3.20;50.60;;;;;;5096912;28;20237;-63
2024/01/21 10:06:33;;;;;;;9.98;3.67;;;3.20;50.50;;;;;;5096366;28;20583;-62
2024/01/21 10:09:12;;;;;;;2.83;2.53;;;3.20;50.90;;;;;;5096357;28;20220;-63
2024/01/21 10:11:38;;;;;;;8.38;4.55;;;3.20;50.40;;;;;;5096711;28;20546;-63
2024/01/21 10:14:07;;;;;;;4.60;3.08;;;3.20;50.40;;;;;;5096698;28;20278;-63
2024/01/21 10:16:33;;;;;;;5.72;4.13;;;3.20;50.40;;;;;;5097360;28;20249;-63
2024/01/21 10:19:00;;;;;;;6.10;3.15;;;3.20;50.40;;;;;;5104215;28;20217;-62
2024/01/21 10:21:27;;;;;;;7.13;3.35;;;3.30;50.50;;;;;;5098026;28;20249;-62
2024/01/21 10:23:54;;;;;;;6.82;3.90;;;3.30;50.50;;;;;;5097339;28;20196;-63
2024/01/21 10:26:21;;;;;;;6.80;3.83;;;3.30;50.50;;;;;;5096931;28;20204;-63
2024/01/21 10:28:47;;;;;;;7.82;3.95;;;3.30;50.50;;;;;;5096604;28;20227;-62
2024/01/21 10:31:15;;;;;;;7.65;3.53;;;3.40;50.60;;;;;;5096406;28;20205;-62
2024/01/21 10:33:45;;;;;;;5.30;3.58;;;3.40;50.60;;;;;;5097014;28;20217;-63
2024/01/21 10:36:12;;;;;;;4.05;3.33;;;3.40;50.60;;;;;;5098285;28;20689;-63
2024/01/21 10:38:48;;;;;;;7.00;3.97;;;3.40;50.60;;;;;;5098329;28;20647;-62
2024/01/21 10:41:21;;;;;;;4.93;3.60;;;3.40;50.70;;;;;;5097178;28;20181;-63
2024/01/21 10:43:50;;;;;;;6.88;4.50;;;3.50;51.00;;;;;;5096994;28;20554;-61
2024/01/21 10:46:19;;;;;;;5.70;4.00;;;3.50;51.00;;;;;;5097489;28;20685;-62
2024/01/21 10:48:47;;;;;;;4.13;3.50;;;3.60;51.10;;;;;;5096308;28;20228;-62
2024/01/21 10:51:16;;;;;;;4.30;3.25;;;3.60;51.10;;;;;;5099128;28;20196;-63
2024/01/21 10:53:43;;;;;;;5.35;3.72;;;3.70;51.10;;;;;;5096418;28;20227;-62
2024/01/21 10:56:11;;;;;;;5.97;4.13;;;3.70;50.90;;;;;;5098657;28;20227;-62
2024/01/21 10:58:38;;;;;;;6.50;4.30;;;3.70;50.80;;;;;;5099355;28;20228;-63
2024/01/21 11:01:06;;;;;;;4.93;3.50;;;3.80;50.90;;;;;;5100752;28;20279;-63
2024/01/21 11:03:35;;;;;;;5.65;3.38;;;3.80;50.80;;;;;;5098577;28;20197;-64
2024/01/21 11:06:04;;;;;;;6.55;4.03;;;3.80;50.60;;;;;;5097603;28;20201;-63
2024/01/21 11:08:32;;;;;;;6.25;4.28;;;3.90;50.50;;;;;;5099949;28;20224;-62
2024/01/21 11:11:07;;;;;;;5.90;4.53;;;4.00;50.40;;;;;;5099685;28;20219;-64
2024/01/21 11:13:44;;;;;;;5.88;4.63;;;4.00;50.30;;;;;;5098625;28;20204;-62
2024/01/21 11:16:35;;;;;;;4.97;3.33;;;4.10;50.30;;;;;;5098084;28;20188;-64
2024/01/21 11:19:06;;;;;;;6.65;4.38;;;4.20;50.10;;;;;;5098427;28;20337;-64
2024/01/21 11:21:34;;;;;;;11.30;4.40;;;4.30;49.90;;;;;;5098280;28;20606;-63
2024/01/21 11:24:03;;;;;;;6.18;4.55;;;4.30;49.40;;;;;;5098570;28;20199;-63
2024/01/21 11:26:30;;;;;;;4.75;3.60;;;4.40;49.50;;;;;;5099564;28;20615;-63
2024/01/21 11:28:58;;;;;;;6.13;4.85;;;4.50;49.50;;;;;;5097838;28;20605;-62
2024/01/21 11:31:26;;;;;;;5.68;4.25;;;4.50;49.30;;;;;;5097170;28;20226;-63
2024/01/21 11:34:12;;;;;;;5.32;3.75;;;4.50;49.30;;;;;;5096751;28;20714;-64
2024/01/21 11:36:39;;;;;;;5.28;4.38;;;4.50;49.50;;;;;;5096838;28;20271;-62
2024/01/21 11:39:07;;;;;;;7.78;5.65;;;4.50;49.60;;;;;;5095962;28;20287;-62
2024/01/21 11:41:41;;;;;;;7.28;5.60;;;4.50;49.70;;;;;;5096799;28;20681;-62
2024/01/21 11:44:13;;;;;;;6.90;4.30;;;4.50;49.70;;;;;;5100186;28;20185;-64
2024/01/21 11:46:41;;;;;;;6.53;4.60;;;4.50;49.80;;;;;;5096837;28;20204;-64
2024/01/21 11:49:09;;;;;;;6.30;4.70;;;4.50;49.80;;;;;;5100405;28;20200;-62
2024/01/21 11:51:37;;;;;;;5.22;4.72;;;4.60;49.60;;;;;;5105118;28;20211;-64
2024/01/21 11:54:04;;;;;;;8.10;4.32;;;4.70;49.50;;;;;;5105572;28;20231;-63
2024/01/21 11:56:31;;;;;;;7.13;5.13;;;4.80;49.50;;;;;;5106006;28;20208;-63
2024/01/21 11:58:58;;;;;;;5.75;4.60;;;4.80;48.60;;;;;;5106305;28;20224;-64
2024/01/21 12:01:26;;;;;;;8.52;4.95;;;4.70;48.10;;;;;;5105510;28;20200;-65
2024/01/21 12:03:53;;;;;;;6.85;5.00;;;4.60;48.00;;;;;;5105145;28;20200;-65
2024/01/21 12:06:20;;;;;;;6.25;4.65;;;4.60;48.10;;;;;;5107596;28;20205;-63
2024/01/21 12:08:49;;;;;;;7.85;4.95;;;4.60;48.10;;;;;;5106565;28;20220;-64
2024/01/21 12:11:17;;;;;;;5.60;4.40;;;4.50;48.00;;;;;;5105320;28;20204;-65
2024/01/21 12:13:44;;;;;;;5.40;4.65;;;4.60;47.90;;;;;;5104517;28;20210;-63
2024/01/21 12:16:11;;;;;;;6.28;4.63;;;4.50;48.00;;;;;;5103594;28;20200;-64
2024/01/21 12:18:39;;;;;;;7.25;5.47;;;4.50;48.30;;;;;;5104951;28;20235;-64
2024/01/21 12:21:06;;;;;;;8.13;6.13;;;4.50;48.40;;;;;;5104838;28;20197;-64
2024/01/21 12:23:35;;;;;;;10.13;5.05;;;4.50;48.70;;;;;;5106868;28;20214;-63
2024/01/21 12:26:03;;;;;;;9.38;5.22;;;4.40;48.80;;;;;;5106098;28;20224;-64
2024/01/21 12:28:30;;;;;;;8.80;4.97;;;4.40;49.10;;;;;;5106684;28;20250;-64
2024/01/21 12:30:57;;;;;;;9.90;5.35;;;4.40;49.50;;;;;;5106238;28;20204;-63
2024/01/21 12:33:25;;;;;;;9.80;4.68;;;4.30;49.20;;;;;;5108349;28;20200;-63
2024/01/21 12:35:52;;;;;;;7.05;5.70;;;4.40;49.60;;;;;;5108232;28;20196;-64
2024/01/21 12:38:18;;;;;;;5.18;4.65;;;4.40;49.70;;;;;;5109093;28;20231;-64
2024/01/21 12:40:46;;;;;;;7.53;4.93;;;4.50;50.00;;;;;;5109298;28;20200;-64
2024/01/21 12:43:16;;;;;;;9.80;5.97;;;4.50;50.20;;;;;;5101812;28;20236;-64
2024/01/21 12:45:43;;;;;;;7.43;5.20;;;4.60;50.40;;;;;;5100619;28;20185;-63
2024/01/21 12:48:10;;;;;;;6.90;4.93;;;4.70;50.60;;;;;;5108233;28;20216;-63
2024/01/21 12:50:37;;;;;;;6.88;4.72;;;4.70;50.90;;;;;;5112868;28;20668;-64
2024/01/21 12:53:04;;;;;;;11.02;5.75;;;4.80;51.30;;;;;;5110713;28;20196;-64
2024/01/21 12:55:31;;;;;;;8.35;4.90;;;4.80;51.70;;;;;;5110247;28;20220;-64
2024/01/21 12:57:57;;;;;;;6.75;4.95;;;4.70;52.00;;;;;;5113072;28;20226;-64
2024/01/21 13:00:26;;;;;;;9.10;5.50;;;4.70;52.50;;;;;;5112195;28;20674;-64